createdAt,value
2019-02-05T00:02:29.382Z,10.90
2019-02-05T00:05:01.140Z,10.90
2019-02-05T00:07:34.125Z,10.90
2019-02-05T00:10:07.294Z,10.90
2019-02-05T00:12:39.906Z,10.90
2019-02-05T00:15:11.763Z,10.90
2019-02-05T00:17:42.951Z,10.90
2019-02-05T00:20:14.465Z,10.90
2019-02-05T00:22:45.553Z,10.90
2019-02-05T00:25:16.872Z,10.90
2019-02-05T00:27:50.869Z,10.90
2019-02-05T00:30:21.815Z,11.00
2019-02-05T00:32:56.411Z,11.00
2019-02-05T00:35:27.791Z,11.00
2019-02-05T00:37:59.001Z,11.00
2019-02-05T00:40:30.405Z,11.00
2019-02-05T00:43:01.453Z,10.90
2019-02-05T00:45:32.754Z,10.90
2019-02-05T00:48:05.238Z,10.90
2019-02-05T00:50:36.667Z,10.90
2019-02-05T00:53:08.167Z,10.90
2019-02-05T00:55:39.460Z,10.80
2019-02-05T00:58:10.814Z,10.80
2019-02-05T01:00:41.975Z,10.80
2019-02-05T01:03:13.223Z,10.90
2019-02-05T01:05:44.781Z,10.90
2019-02-05T01:08:15.863Z,10.90
2019-02-05T01:10:47.235Z,10.90
2019-02-05T01:13:18.239Z,10.90
2019-02-05T01:15:49.622Z,10.90
2019-02-05T01:18:20.478Z,10.90
2019-02-05T01:20:51.879Z,10.90
2019-02-05T01:23:23.181Z,11.10
2019-02-05T01:25:54.573Z,11.20
2019-02-05T01:28:25.736Z,11.30
2019-02-05T01:30:57.176Z,11.10
2019-02-05T01:33:28.480Z,11.00
2019-02-05T01:35:59.727Z,11.00
2019-02-05T01:38:30.802Z,10.90
2019-02-05T01:41:02.010Z,11.00
2019-02-05T01:43:33.121Z,11.00
2019-02-05T01:46:04.540Z,11.00
2019-02-05T01:48:35.717Z,11.00
2019-02-05T01:51:07.131Z,10.90
2019-02-05T01:53:38.304Z,11.00
2019-02-05T01:56:11.384Z,11.10
2019-02-05T01:58:45.266Z,11.20
2019-02-05T02:01:16.313Z,11.20
2019-02-05T02:03:47.354Z,11.10
2019-02-05T02:06:18.386Z,11.10
2019-02-05T02:08:49.775Z,11.10
2019-02-05T02:11:20.618Z,11.10
2019-02-05T02:13:51.600Z,11.20
2019-02-05T02:16:23.180Z,11.30
2019-02-05T02:18:54.258Z,11.20
2019-02-05T02:21:25.610Z,11.10
2019-02-05T02:23:56.721Z,11.00
2019-02-05T02:26:28.025Z,11.00
2019-02-05T02:28:59.090Z,11.00
2019-02-05T02:31:30.310Z,11.00
2019-02-05T02:34:01.592Z,11.00
2019-02-05T02:36:32.719Z,11.00
2019-02-05T02:39:04.968Z,11.00
2019-02-05T02:41:36.233Z,11.00
2019-02-05T02:44:07.459Z,11.00
2019-02-05T02:46:38.536Z,11.00
2019-02-05T02:49:09.721Z,11.00
2019-02-05T02:51:41.302Z,11.00
2019-02-05T02:54:12.500Z,11.00
2019-02-05T02:56:43.724Z,11.00
2019-02-05T02:59:14.610Z,11.00
2019-02-05T03:01:45.809Z,11.00
2019-02-05T03:04:16.997Z,11.00
2019-02-05T03:06:48.425Z,11.00
2019-02-05T03:09:19.776Z,11.00
2019-02-05T03:11:51.109Z,11.00
2019-02-05T03:14:21.857Z,11.00
2019-02-05T03:16:53.360Z,10.90
2019-02-05T03:19:28.140Z,11.00
2019-02-05T03:21:59.788Z,10.90
2019-02-05T03:24:30.894Z,10.90
2019-02-05T03:27:02.050Z,10.90
2019-02-05T03:29:33.188Z,10.90
2019-02-05T03:32:04.361Z,10.90
2019-02-05T03:34:35.558Z,10.90
2019-02-05T03:37:07.452Z,10.90
2019-02-05T03:39:38.463Z,10.80
2019-02-05T03:42:09.645Z,10.80
2019-02-05T03:44:44.707Z,10.80
2019-02-05T03:47:16.454Z,10.80
2019-02-05T03:49:47.848Z,10.80
2019-02-05T03:52:23.532Z,10.80
2019-02-05T03:55:26.414Z,10.80
2019-02-05T03:58:32.378Z,10.80
2019-02-05T04:01:45.204Z,10.80
2019-02-05T04:04:57.446Z,10.80
2019-02-05T04:08:15.837Z,10.80
2019-02-05T04:11:22.351Z,10.80
2019-02-05T04:14:32.718Z,10.90
2019-02-05T04:17:53.568Z,10.90
2019-02-05T04:21:11.716Z,10.90
2019-02-05T04:24:23.500Z,10.80
2019-02-05T04:27:43.739Z,10.80
2019-02-05T04:31:01.093Z,10.80
2019-02-05T04:34:07.755Z,10.80
2019-02-05T04:37:03.732Z,10.80
2019-02-05T04:40:10.190Z,10.90
2019-02-05T04:43:23.214Z,11.00
2019-02-05T04:46:25.475Z,11.10
2019-02-05T04:49:32.243Z,11.10
2019-02-05T04:52:36.790Z,11.10
2019-02-05T04:55:25.500Z,11.00
2019-02-05T04:58:46.134Z,11.10
2019-02-05T05:01:43.592Z,11.10
2019-02-05T05:04:34.003Z,11.00
2019-02-05T05:07:23.726Z,10.90
2019-02-05T05:10:02.930Z,10.90
2019-02-05T05:12:34.160Z,10.80
2019-02-05T05:15:06.056Z,10.90
2019-02-05T05:17:37.357Z,10.90
2019-02-05T05:20:10.543Z,11.00
2019-02-05T05:22:41.960Z,10.90
2019-02-05T05:25:13.475Z,11.00
2019-02-05T05:27:45.041Z,11.00
2019-02-05T05:30:18.523Z,11.00
2019-02-05T05:32:51.030Z,10.90
2019-02-05T05:35:21.852Z,10.90
2019-02-05T05:37:53.088Z,10.80
2019-02-05T05:40:24.035Z,10.80
2019-02-05T05:42:55.038Z,10.90
2019-02-05T05:45:25.745Z,11.00
2019-02-05T05:47:57.068Z,11.10
2019-02-05T05:50:28.263Z,11.00
2019-02-05T05:52:59.355Z,11.20
2019-02-05T05:55:31.372Z,11.20
2019-02-05T05:58:02.635Z,11.00
2019-02-05T06:00:33.680Z,11.00
2019-02-05T06:03:04.907Z,11.00
2019-02-05T06:05:36.456Z,11.10
2019-02-05T06:08:08.409Z,11.10
2019-02-05T06:10:39.565Z,11.30
2019-02-05T06:13:10.691Z,11.30
2019-02-05T06:15:42.314Z,11.30
2019-02-05T06:18:14.457Z,11.20
2019-02-05T06:20:45.495Z,11.20
2019-02-05T06:23:16.395Z,11.00
2019-02-05T06:25:47.732Z,10.90
2019-02-05T06:28:19.009Z,10.90
2019-02-05T06:30:50.469Z,10.90
2019-02-05T06:33:23.628Z,10.90
2019-02-05T06:35:55.295Z,10.90
2019-02-05T06:38:28.616Z,10.90
2019-02-05T06:41:00.174Z,10.80
2019-02-05T06:43:32.469Z,10.80
2019-02-05T06:46:04.035Z,10.80
2019-02-05T06:48:35.747Z,10.70
2019-02-05T06:51:07.101Z,10.80
2019-02-05T06:53:38.609Z,10.80
2019-02-05T06:56:10.125Z,10.70
2019-02-05T06:58:46.539Z,10.70
2019-02-05T07:01:14.691Z,10.60
2019-02-05T07:03:49.549Z,10.70
2019-02-05T07:06:20.703Z,10.80
2019-02-05T07:08:52.004Z,10.70
2019-02-05T07:11:23.043Z,10.70
2019-02-05T07:13:54.433Z,10.60
2019-02-05T07:16:25.609Z,10.60
2019-02-05T07:18:57.035Z,10.60
2019-02-05T07:21:28.249Z,10.60
2019-02-05T07:23:59.377Z,10.70
2019-02-05T07:26:30.788Z,10.60
2019-02-05T07:29:02.277Z,10.60
2019-02-05T07:31:33.318Z,10.70
2019-02-05T07:34:04.929Z,10.80
2019-02-05T07:36:36.084Z,10.80
2019-02-05T07:39:09.841Z,10.80
2019-02-05T07:41:41.123Z,10.70
2019-02-05T07:44:12.320Z,10.80
2019-02-05T07:46:43.822Z,10.90
2019-02-05T07:49:14.629Z,10.90
2019-02-05T07:51:45.841Z,10.90
2019-02-05T07:54:17.529Z,11.00
2019-02-05T07:56:53.908Z,11.00
2019-02-05T07:59:25.160Z,11.20
2019-02-05T08:01:56.383Z,11.30
2019-02-05T08:04:27.531Z,11.30
2019-02-05T08:06:59.123Z,11.30
2019-02-05T08:09:30.632Z,11.30
2019-02-05T08:12:01.818Z,11.30
2019-02-05T08:14:33.268Z,11.30
2019-02-05T08:17:04.784Z,11.30
2019-02-05T08:19:40.775Z,11.30
2019-02-05T08:22:12.793Z,11.40
2019-02-05T08:24:44.097Z,11.30
2019-02-05T08:27:15.513Z,11.30
2019-02-05T08:29:46.749Z,11.30
2019-02-05T08:32:19.509Z,11.30
2019-02-05T08:34:50.756Z,11.30
2019-02-05T08:37:22.212Z,11.40
2019-02-05T08:39:53.607Z,11.50
2019-02-05T08:42:26.626Z,11.50
2019-02-05T08:44:58.553Z,11.60
2019-02-05T08:47:29.855Z,11.60
2019-02-05T08:50:01.530Z,11.60
2019-02-05T08:52:32.858Z,11.70
2019-02-05T08:55:04.709Z,11.60
2019-02-05T08:57:35.635Z,11.60
2019-02-05T09:00:09.668Z,11.60
2019-02-05T09:02:41.405Z,11.70
2019-02-05T09:05:12.713Z,11.70
2019-02-05T09:07:43.699Z,11.70
2019-02-05T09:10:18.454Z,11.70
2019-02-05T09:12:49.934Z,11.80
2019-02-05T09:15:29.062Z,11.90
2019-02-05T09:17:54.057Z,11.90
2019-02-05T09:20:25.288Z,11.90
2019-02-05T09:22:57.469Z,12.20
2019-02-05T09:25:28.636Z,12.40
2019-02-05T09:27:59.819Z,12.40
2019-02-05T09:30:33.829Z,12.20
2019-02-05T09:33:07.222Z,12.10
2019-02-05T09:35:39.503Z,12.00
2019-02-05T09:38:11.243Z,11.90
2019-02-05T09:40:42.936Z,12.00
2019-02-05T09:43:14.479Z,12.10
2019-02-05T09:45:45.705Z,12.20
2019-02-05T09:48:16.544Z,12.00
2019-02-05T09:50:47.754Z,12.00
2019-02-05T09:53:18.757Z,12.10
2019-02-05T09:55:49.845Z,12.20
2019-02-05T09:58:21.690Z,12.20
2019-02-05T10:00:52.962Z,12.10
2019-02-05T10:03:24.209Z,11.90
2019-02-05T10:06:00.862Z,11.90
2019-02-05T10:08:33.583Z,11.90
2019-02-05T10:11:05.295Z,11.90
2019-02-05T10:13:36.516Z,12.00
2019-02-05T10:16:08.435Z,12.10
2019-02-05T10:18:41.054Z,12.20
2019-02-05T10:21:12.517Z,12.40
2019-02-05T10:23:43.890Z,12.40
2019-02-05T10:26:15.531Z,12.40
2019-02-05T10:28:46.897Z,12.40
2019-02-05T10:31:17.746Z,12.50
2019-02-05T10:33:55.360Z,12.50
2019-02-05T10:36:21.505Z,12.50
2019-02-05T10:38:53.180Z,12.60
2019-02-05T10:41:24.145Z,12.60
2019-02-05T10:43:55.462Z,12.60
2019-02-05T10:46:26.891Z,12.70
2019-02-05T10:48:58.099Z,12.70
2019-02-05T10:51:29.584Z,12.90
2019-02-05T10:54:01.136Z,12.80
2019-02-05T10:56:32.478Z,12.80
2019-02-05T10:59:03.582Z,13.00
2019-02-05T11:01:34.995Z,13.10
2019-02-05T11:04:07.315Z,13.00
2019-02-05T11:06:39.848Z,12.90
2019-02-05T11:09:12.099Z,13.00
2019-02-05T11:11:43.147Z,13.00
2019-02-05T11:14:14.386Z,13.10
2019-02-05T11:16:45.693Z,14.10
2019-02-05T11:19:16.517Z,13.20
2019-02-05T11:21:47.833Z,13.30
2019-02-05T11:24:18.948Z,13.30
2019-02-05T11:26:50.636Z,13.40
2019-02-05T11:29:21.625Z,13.40
2019-02-05T11:31:52.857Z,13.50
2019-02-05T11:34:24.722Z,13.60
2019-02-05T11:36:56.146Z,13.60
2019-02-05T11:39:27.476Z,13.60
2019-02-05T11:41:59.025Z,13.70
2019-02-05T11:44:30.444Z,13.90
2019-02-05T11:47:03.866Z,13.80
2019-02-05T11:49:34.703Z,13.90
2019-02-05T11:52:09.729Z,13.90
2019-02-05T11:54:40.179Z,14.00
2019-02-05T11:57:11.251Z,14.00
2019-02-05T11:59:42.537Z,14.10
2019-02-05T12:02:14.617Z,14.10
2019-02-05T12:04:46.124Z,14.20
2019-02-05T12:07:17.422Z,14.30
2019-02-05T12:09:49.448Z,14.50
2019-02-05T12:12:20.459Z,14.50
2019-02-05T12:14:51.800Z,14.50
2019-02-05T12:17:22.716Z,14.50
2019-02-05T12:19:55.715Z,14.60
2019-02-05T12:22:26.875Z,14.60
2019-02-05T12:24:59.299Z,14.60
2019-02-05T12:27:30.744Z,14.70
2019-02-05T12:30:05.773Z,14.90
2019-02-05T12:32:36.894Z,14.90
2019-02-05T12:35:08.249Z,14.90
2019-02-05T12:37:39.527Z,15.00
2019-02-05T12:40:12.263Z,15.00
2019-02-05T12:42:44.023Z,15.10
2019-02-05T12:45:20.754Z,15.10
2019-02-05T12:47:52.071Z,15.20
2019-02-05T12:50:25.558Z,15.30
2019-02-05T12:52:57.070Z,15.30
2019-02-05T12:55:28.831Z,15.40
2019-02-05T12:58:00.976Z,15.50
2019-02-05T13:00:34.820Z,15.70
2019-02-05T13:03:06.265Z,15.80
2019-02-05T13:05:38.783Z,16.10
2019-02-05T13:08:13.569Z,16.40
2019-02-05T13:10:49.670Z,16.50
2019-02-05T13:13:20.979Z,16.60
2019-02-05T13:15:58.993Z,16.40
2019-02-05T13:18:31.243Z,16.40
2019-02-05T13:21:02.388Z,16.90
2019-02-05T13:23:41.344Z,17.40
2019-02-05T13:26:12.501Z,17.60
2019-02-05T13:28:44.040Z,17.50
2019-02-05T13:31:15.251Z,17.30
2019-02-05T13:33:46.441Z,17.40
2019-02-05T13:36:22.516Z,17.40
2019-02-05T13:38:55.792Z,17.30
2019-02-05T13:41:29.124Z,17.20
2019-02-05T13:44:00.692Z,17.00
2019-02-05T13:46:32.683Z,16.90
2019-02-05T13:49:04.208Z,16.80
2019-02-05T13:51:36.010Z,16.70
2019-02-05T13:54:07.527Z,16.80
2019-02-05T13:56:39.031Z,16.70
2019-02-05T13:59:10.229Z,17.00
2019-02-05T14:01:44.437Z,16.90
2019-02-05T14:04:15.045Z,17.00
2019-02-05T14:06:46.449Z,18.00
2019-02-05T14:09:17.812Z,18.60
2019-02-05T14:11:49.340Z,18.40
2019-02-05T14:14:20.322Z,17.40
2019-02-05T14:16:53.432Z,17.00
2019-02-05T14:19:24.951Z,16.80
2019-02-05T14:21:56.181Z,16.70
2019-02-05T14:24:27.483Z,17.00
2019-02-05T14:26:59.069Z,17.20
2019-02-05T14:29:30.154Z,17.30
2019-02-05T14:32:01.702Z,17.90
2019-02-05T14:34:33.622Z,18.80
2019-02-05T14:37:06.001Z,19.70
2019-02-05T14:39:37.893Z,20.20
2019-02-05T14:42:09.862Z,20.30
2019-02-05T14:44:42.206Z,20.30
2019-02-05T14:47:13.536Z,18.60
2019-02-05T14:49:45.118Z,17.60
2019-02-05T14:52:17.277Z,17.50
2019-02-05T14:54:49.192Z,17.80
2019-02-05T14:57:20.711Z,17.70
2019-02-05T14:59:52.465Z,17.40
2019-02-05T15:02:28.953Z,17.10
2019-02-05T15:05:01.033Z,17.20
2019-02-05T15:07:33.030Z,17.20
2019-02-05T15:10:05.188Z,17.20
2019-02-05T15:12:36.795Z,17.10
2019-02-05T15:15:11.534Z,17.10
2019-02-05T15:17:42.866Z,16.80
2019-02-05T15:20:46.180Z,16.50
2019-02-05T15:23:17.859Z,16.60
2019-02-05T15:25:49.750Z,16.50
2019-02-05T15:28:20.785Z,16.50
2019-02-05T15:30:54.649Z,16.40
2019-02-05T15:34:03.475Z,16.20
2019-02-05T15:36:38.397Z,16.10
2019-02-05T15:39:18.506Z,16.10
2019-02-05T15:41:50.442Z,16.10
2019-02-05T15:44:21.291Z,16.10
2019-02-05T15:46:52.643Z,16.10
2019-02-05T15:49:26.896Z,16.20
2019-02-05T15:51:57.268Z,16.00
2019-02-05T15:54:28.452Z,15.70
2019-02-05T15:56:59.863Z,15.70
2019-02-05T15:59:31.308Z,15.70
2019-02-05T16:02:06.375Z,15.50
2019-02-05T16:04:35.445Z,15.50
2019-02-05T16:07:09.550Z,15.70
2019-02-05T16:09:41.090Z,15.60
2019-02-05T16:12:12.649Z,15.70
2019-02-05T16:14:44.279Z,15.70
2019-02-05T16:17:15.709Z,15.60
2019-02-05T16:19:47.017Z,15.40
2019-02-05T16:22:17.863Z,15.20
2019-02-05T16:24:49.415Z,15.20
2019-02-05T16:27:20.669Z,15.20
2019-02-05T16:29:52.167Z,15.20
2019-02-05T16:32:23.958Z,15.30
2019-02-05T16:34:55.759Z,15.20
2019-02-05T16:37:27.412Z,15.20
2019-02-05T16:39:58.718Z,15.30
2019-02-05T16:42:29.992Z,15.20
2019-02-05T16:45:01.503Z,15.10
2019-02-05T16:47:33.043Z,15.00
2019-02-05T16:50:04.929Z,14.90
2019-02-05T16:52:36.567Z,15.00
2019-02-05T16:55:08.248Z,15.10
2019-02-05T16:57:39.728Z,15.10
2019-02-05T17:00:17.716Z,15.00
2019-02-05T17:02:49.242Z,15.00
2019-02-05T17:05:20.907Z,14.90
2019-02-05T17:07:52.299Z,14.80
2019-02-05T17:10:23.194Z,14.80
2019-02-05T17:12:54.745Z,14.70
2019-02-05T17:15:26.048Z,14.70
2019-02-05T17:17:57.709Z,14.60
2019-02-05T17:20:30.525Z,14.70
2019-02-05T17:23:02.384Z,14.70
2019-02-05T17:25:36.061Z,14.70
2019-02-05T17:28:08.157Z,14.70
2019-02-05T17:30:39.947Z,14.60
2019-02-05T17:33:12.324Z,14.60
2019-02-05T17:35:44.153Z,14.60
2019-02-05T17:38:16.270Z,14.60
2019-02-05T17:40:47.663Z,14.50
2019-02-05T17:43:18.730Z,14.50
2019-02-05T17:45:50.869Z,14.40
2019-02-05T17:48:22.292Z,14.50
2019-02-05T17:50:53.359Z,14.60
2019-02-05T17:53:24.892Z,14.50
2019-02-05T17:55:56.283Z,14.40
2019-02-05T17:58:27.330Z,14.40
2019-02-05T18:01:05.878Z,14.50
2019-02-05T18:03:37.213Z,14.50
2019-02-05T18:06:08.851Z,14.50
2019-02-05T18:08:40.317Z,14.50
2019-02-05T18:11:12.216Z,14.50
2019-02-05T18:13:44.245Z,14.50
2019-02-05T18:16:18.325Z,14.40
2019-02-05T18:18:50.285Z,14.30
2019-02-05T18:21:21.127Z,14.20
2019-02-05T18:23:52.884Z,14.20
2019-02-05T18:26:24.236Z,14.20
2019-02-05T18:28:55.506Z,14.20
2019-02-05T18:31:26.324Z,14.10
2019-02-05T18:33:57.479Z,14.10
2019-02-05T18:36:32.217Z,14.10
2019-02-05T18:39:03.598Z,14.10
2019-02-05T18:41:34.965Z,14.00
2019-02-05T18:44:06.574Z,14.00
2019-02-05T18:46:39.094Z,14.00
2019-02-05T18:49:10.986Z,14.00
2019-02-05T18:51:42.632Z,14.00
2019-02-05T18:54:14.075Z,14.00
2019-02-05T18:56:45.943Z,14.00
2019-02-05T18:59:19.990Z,14.10
2019-02-05T19:01:51.487Z,14.00
2019-02-05T19:04:22.429Z,14.00
2019-02-05T19:06:53.799Z,13.90
2019-02-05T19:09:24.801Z,14.00
2019-02-05T19:12:02.645Z,14.00
2019-02-05T19:14:34.798Z,14.00
2019-02-05T19:17:07.776Z,14.00
2019-02-05T19:19:38.888Z,14.00
2019-02-05T19:22:11.648Z,14.00
2019-02-05T19:24:48.378Z,13.90
2019-02-05T19:27:20.625Z,13.90
2019-02-05T19:29:51.974Z,13.70
2019-02-05T19:32:26.597Z,13.70
2019-02-05T19:34:57.668Z,13.80
2019-02-05T19:45:55.900Z,13.80
2019-02-05T19:48:31.883Z,13.80
2019-02-05T19:51:04.005Z,13.80
2019-02-05T19:53:35.363Z,13.70
2019-02-05T19:56:07.486Z,13.70
2019-02-05T19:58:39.034Z,13.70
2019-02-05T20:01:10.077Z,13.70
2019-02-05T20:03:41.252Z,13.60
2019-02-05T20:06:12.525Z,13.50
2019-02-05T20:08:43.823Z,13.50
2019-02-05T20:11:15.246Z,13.50
2019-02-05T20:13:46.394Z,13.50
2019-02-05T20:16:17.953Z,13.50
2019-02-05T20:18:49.361Z,13.50
2019-02-05T20:21:21.709Z,13.60
2019-02-05T20:23:53.383Z,13.60
2019-02-05T20:26:24.803Z,13.60
2019-02-05T20:28:55.940Z,13.60
2019-02-05T20:31:26.825Z,13.60
2019-02-05T20:33:58.240Z,13.60
2019-02-05T20:36:29.250Z,13.50
2019-02-05T20:39:00.706Z,13.50
2019-02-05T20:41:31.795Z,13.50
2019-02-05T20:44:03.311Z,13.50
2019-02-05T20:46:34.792Z,13.40
2019-02-05T20:49:06.212Z,13.30
2019-02-05T20:51:37.500Z,13.30
2019-02-05T20:54:09.695Z,13.30
2019-02-05T20:56:41.202Z,13.30
2019-02-05T21:00:15.443Z,13.30
2019-02-05T21:02:50.835Z,13.40
2019-02-05T21:05:21.927Z,13.40
2019-02-05T21:07:53.429Z,13.50
2019-02-05T21:10:24.986Z,13.50
2019-02-05T21:12:56.682Z,13.40
2019-02-05T21:15:28.498Z,13.50
2019-02-05T21:18:00.384Z,13.40
2019-02-05T21:20:34.033Z,13.40
2019-02-05T21:23:05.531Z,13.40
2019-02-05T21:25:36.831Z,13.40
2019-02-05T21:28:08.300Z,13.40
2019-02-05T21:30:39.979Z,13.40
2019-02-05T21:33:11.739Z,13.40
2019-02-05T21:35:44.322Z,13.40
2019-02-05T21:38:17.634Z,13.40
2019-02-05T21:40:48.944Z,13.30
2019-02-05T21:43:19.960Z,13.30
2019-02-05T21:45:51.848Z,13.30
2019-02-05T21:48:23.070Z,13.30
2019-02-05T21:50:54.530Z,13.10
2019-02-05T21:53:25.965Z,13.10
2019-02-05T21:55:57.361Z,13.10
2019-02-05T21:58:32.176Z,13.10
2019-02-05T22:01:04.512Z,13.00
2019-02-05T22:03:36.295Z,13.10
2019-02-05T22:06:07.503Z,13.00
2019-02-05T22:08:38.800Z,13.00
2019-02-05T22:11:10.282Z,12.90
2019-02-05T22:13:42.239Z,12.90
2019-02-05T22:16:13.841Z,13.00
2019-02-05T22:18:45.229Z,13.00
2019-02-05T22:21:16.668Z,13.00
2019-02-05T22:23:47.960Z,12.90
2019-02-05T22:26:26.563Z,12.80
2019-02-05T22:28:58.587Z,13.00
2019-02-05T22:31:30.158Z,12.90
2019-02-05T22:34:01.315Z,12.90
2019-02-05T22:36:33.710Z,12.90
2019-02-05T22:39:09.004Z,12.90
2019-02-05T22:41:42.518Z,12.90
2019-02-05T22:44:15.036Z,12.80
2019-02-05T22:46:47.969Z,12.80
2019-02-05T22:49:18.951Z,12.80
2019-02-05T22:51:50.838Z,12.70
2019-02-05T22:54:22.583Z,12.60
2019-02-05T22:56:53.891Z,12.60
2019-02-05T22:59:25.061Z,12.60
2019-02-05T23:01:58.896Z,12.50
2019-02-05T23:05:01.454Z,12.50
2019-02-05T23:07:33.053Z,12.50
2019-02-05T23:10:22.378Z,12.40
2019-02-05T23:13:01.785Z,12.50
2019-02-05T23:15:33.050Z,12.50
2019-02-05T23:18:05.128Z,12.60
2019-02-05T23:20:36.507Z,12.70
2019-02-05T23:23:07.725Z,12.70
2019-02-05T23:25:38.920Z,12.80
2019-02-05T23:28:09.935Z,12.70
2019-02-05T23:30:41.178Z,12.60
2019-02-05T23:33:12.706Z,12.50
2019-02-05T23:35:43.954Z,12.50
2019-02-05T23:38:15.581Z,12.50
2019-02-05T23:40:46.953Z,12.40
2019-02-05T23:43:18.695Z,12.50
2019-02-05T23:46:00.961Z,12.50
2019-02-05T23:48:23.406Z,12.50
2019-02-05T23:50:54.874Z,12.60
2019-02-05T23:53:25.938Z,12.60
2019-02-05T23:55:57.370Z,12.50
2019-02-05T23:58:30.198Z,12.40
